EW0585 Weather Reports


Display with metric or nautical units.
time (UTC)temp
F
wind
direction
speed
MPH
gust
MPH
rain 1hr
in
rain 24hr
in
rain mn
in
humidity
%
barometer
mb
20210726001625 78 103 0.0 1.0 0.00 0.00 0.00 33 1005.0
20210726000102 78 128 0.0 3.0 0.00 0.00 0.00 32 1005.1
20210725234639 79 139 0.0 5.0 0.00 0.00 0.00 31 1005.2
20210725233145 80 118 1.0 6.0 0.00 0.00 0.00 29 1005.2
20210725231558 81 164 0.0 3.0 0.00 0.00 0.00 29 1005.5
20210725230036 80 167 0.0 5.0 0.00 0.00 0.00 29 1005.6
20210725224537 79 148 0.0 2.0 0.00 0.00 0.00 33 1006.0
20210725223116 78 165 0.0 4.0 0.00 0.00 0.00 32 1006.2
20210725221619 78 122 0.0 4.0 0.00 0.00 0.00 33 1006.4
20210725220035 78 102 2.0 9.0 0.00 0.00 0.00 33 1006.7
20210725214532 79 167 2.0 9.0 0.00 0.00 0.00 30 1006.8
20210725213047 80 112 1.0 7.0 0.00 0.00 0.00 30 1006.9
20210725211525 81 162 0.0 3.0 0.00 0.00 0.00 30 1007.0
20210725210019 79 124 0.0 7.0 0.00 0.00 0.00 32 1007.1
20210725204525 78 142 0.0 7.0 0.00 0.00 0.00 33 1007.2
20210725203020 78 106 2.0 8.0 0.00 0.00 0.00 33 1007.3
20210725201519 80 96 3.0 7.0 0.00 0.00 0.00 31 1007.3
20210725200107 78 100 1.0 5.0 0.00 0.00 0.00 32 1007.4
20210725194513 79 69 0.0 3.0 0.00 0.00 0.00 31 1007.5
20210725193012 78 25 0.0 7.0 0.00 0.00 0.00 32 1007.5
20210725191529 77 5 1.0 9.0 0.00 0.00 0.00 32 1007.7
20210725190011 77 9 3.0 8.0 0.00 0.00 0.00 33 1007.7
20210725184558 77 12 0.0 8.0 0.00 0.00 0.00 34 1007.8
20210725183038 79 128 0.0 6.0 0.00 0.00 0.00 32 1008.0
20210725181514 78 140 0.0 8.0 0.00 0.00 0.00 32 1007.9
20210725180017 77 24 0.0 6.0 0.00 0.00 0.00 31 1008.0
20210725174504 76 38 0.0 5.0 0.00 0.00 0.00 34 1008.0
20210725173004 75 24 1.0 7.0 0.00 0.00 0.00 31 1008.1
20210725171501 75 13 1.0 6.0 0.00 0.00 0.00 31 1008.1
20210725170218 75 22 2.0 6.0 0.00 0.00 0.00 31 1007.9
20210725164707 76 22 1.0 6.0 0.00 0.00 0.00 31 1007.8
20210725163133 77 138 0.0 1.0 0.00 0.00 0.00 32 1007.8
20210725161648 74 18 0.0 3.0 0.00 0.00 0.00 34 1007.9
20210725160217 74 27 0.0 1.0 0.00 0.00 0.00 34 1007.9
20210725154622 74 83 0.0 2.0 0.00 0.00 0.00 35 1007.9
20210725153109 72 31 0.0 2.0 0.00 0.00 0.00 37 1008.0
20210725151614 71 32 0.0 2.0 0.00 0.00 0.00 38 1008.0
20210725150218 70 87 0.0 1.0 0.00 0.00 0.00 41 1008.0
20210725144629 68 111 0.0 0.0 0.00 0.00 0.00 44 1007.8
20210725143135 66 173 0.0 0.0 0.00 0.00 0.00 47 1007.8
20210725141640 66 173 0.0 0.0 0.00 0.00 0.00 46 1007.7
20210725140113 63 173 0.0 0.0 0.00 0.00 0.00 48 1007.6
20210725134634 62 173 0.0 0.0 0.00 0.00 0.00 49 1007.6
20210725133106 62 169 0.0 0.0 0.00 0.00 0.00 48 1007.6
20210725131620 61 169 0.0 0.0 0.00 0.00 0.00 48 1007.4
20210725130146 62 169 0.0 0.0 0.00 0.00 0.00 48 1007.3
20210725124626 61 169 0.0 0.0 0.00 0.00 0.00 48 1007.2
20210725123104 61 169 0.0 0.0 0.00 0.00 0.00 48 1007.2
20210725121632 61 169 0.0 0.0 0.00 0.00 0.00 48 1006.9
20210725120043 62 169 0.0 0.0 0.00 0.00 0.00 47 1006.9
20210725114559 62 169 0.0 0.0 0.00 0.00 0.00 47 1006.9
20210725113046 63 169 0.0 0.0 0.00 0.00 0.00 46 1006.9
20210725111546 63 169 0.0 0.0 0.00 0.00 0.00 48 1007.1
20210725110037 63 169 0.0 0.0 0.00 0.00 0.00 46 1007.1
20210725104530 63 169 0.0 0.0 0.00 0.00 0.00 46 1007.2
20210725103045 63 169 0.0 0.0 0.00 0.00 0.00 46 1007.2
20210725101534 63 169 0.0 0.0 0.00 0.00 0.00 46 1007.1
20210725100050 64 169 0.0 0.0 0.00 0.00 0.00 46 1007.3
20210725094527 63 169 0.0 0.0 0.00 0.00 0.00 45 1007.3
20210725093022 64 169 0.0 0.0 0.00 0.00 0.00 44 1007.3
20210725091515 64 169 0.0 0.0 0.00 0.00 0.00 44 1007.2
20210725090016 65 169 0.0 0.0 0.00 0.00 0.00 43 1007.3
20210725084532 65 169 0.0 0.0 0.00 0.00 0.00 43 1007.3
20210725083036 65 169 0.0 0.0 0.00 0.00 0.00 43 1007.3
20210725081520 66 169 0.0 0.0 0.00 0.00 0.00 42 1007.3
20210725080006 66 169 0.0 0.0 0.00 0.00 0.00 41 1007.7
20210725074503 67 169 0.0 0.0 0.00 0.00 0.00 41 1007.7
20210725073001 67 169 0.0 1.0 0.00 0.00 0.00 43 1007.9
20210725071817 67 169 0.0 0.0 0.00 0.00 0.00 45 1007.9
20210725070228 68 169 0.0 0.0 0.00 0.00 0.00 45 1007.9
20210725064702 68 169 0.0 0.0 0.00 0.00 0.00 45 1008.1
20210725063116 68 169 0.0 0.0 0.00 0.00 0.00 46 1008.0
20210725061704 69 169 0.0 0.0 0.00 0.00 0.00 47 1008.2
20210725060202 69 169 0.0 0.0 0.00 0.00 0.00 48 1008.1
20210725054652 69 169 0.0 0.0 0.00 0.00 0.00 51 1008.2
20210725053141 69 169 0.0 2.0 0.00 0.00 0.00 48 1008.3
20210725051642 71 169 0.0 0.0 0.00 0.00 0.00 46 1008.6
20210725050259 72 169 0.0 0.0 0.00 0.00 0.00 40 1008.5
20210725044631 72 169 0.0 0.0 0.00 0.00 0.00 36 1008.4
20210725043145 73 169 0.0 1.0 0.00 0.00 0.00 35 1008.0
20210725041619 72 169 0.0 0.0 0.00 0.00 0.00 35 1007.9
20210725040222 72 169 0.0 0.0 0.00 0.00 0.00 35 1007.8
20210725034657 72 169 0.0 0.0 0.00 0.00 0.00 35 1007.7
20210725033209 73 169 0.0 0.0 0.00 0.00 0.00 35 1007.5
20210725031704 73 169 0.0 0.0 0.00 0.00 0.00 34 1007.3
20210725030133 74 169 0.0 0.0 0.00 0.00 0.00 33 1007.1
20210725024656 75 169 0.0 0.0 0.00 0.00 0.00 33 1007.0
20210725023152 75 169 0.0 0.0 0.00 0.00 0.00 33 1006.9
20210725021552 76 169 0.0 0.0 0.00 0.00 0.00 32 1006.9
20210725020215 76 169 0.0 0.0 0.00 0.00 0.00 32 1006.8
20210725014715 76 169 0.0 0.0 0.00 0.00 0.00 32 1006.7
20210725013302 77 169 0.0 0.0 0.00 0.00 0.00 31 1006.7
20210725011719 78 169 0.0 0.0 0.00 0.00 0.00 30 1006.8
20210725010059 78 169 0.0 0.0 0.00 0.00 0.00 30 1006.8
20210725004657 78 169 0.0 0.0 0.00 0.00 0.00 30 1007.0
20210725003140 78 169 0.0 0.0 0.00 0.00 0.00 29 1007.2